Time;durP1;ratioP1;P1;durP2;ratioP2;P2;SDS_P1;SDS_P2;PMS_P1;PMS_P2;Temp;Humidity;BMP_temperature;BMP_pressure;BME280_temperature;BME280_humidity;BME280_pressure;Samples;Min_cycle;Max_cycle;Signal;HPM_P1;HPM_P2
2022/03/05 00:00:43;;;;;;;6.85;4.03;;;1.50;99.90;;;;;;5016672;28;20506;-65
2022/03/05 00:03:12;;;;;;;7.90;4.32;;;1.50;99.90;;;;;;5034492;28;20057;-65
2022/03/05 00:05:39;;;;;;;6.47;4.13;;;1.50;99.90;;;;;;5017019;28;20053;-65
2022/03/05 00:08:06;;;;;;;7.85;3.95;;;2.30;99.90;;;;;;5033474;28;20120;-65
2022/03/05 00:10:32;;;;;;;7.53;4.43;;;1.40;99.90;;;;;;5016643;28;20045;-65
2022/03/05 00:12:59;;;;;;;6.40;4.15;;;1.40;99.90;;;;;;5034169;28;20099;-65
2022/03/05 00:15:25;;;;;;;7.05;4.50;;;2.00;99.90;;;;;;5033032;28;20064;-65
2022/03/05 00:17:52;;;;;;;9.93;5.05;;;1.20;99.90;;;;;;5033839;28;20049;-65
2022/03/05 00:20:18;;;;;;;8.27;4.78;;;1.40;99.90;;;;;;5034010;28;20489;-65
2022/03/05 00:22:46;;;;;;;8.00;4.53;;;1.30;99.90;;;;;;5032393;28;20083;-65
2022/03/05 00:25:12;;;;;;;6.75;4.32;;;1.20;99.90;;;;;;5032840;28;20509;-65
2022/03/05 00:27:39;;;;;;;7.90;4.53;;;1.20;99.90;;;;;;5033792;28;20041;-65
2022/03/05 00:30:05;;;;;;;8.25;4.43;;;2.40;99.90;;;;;;5033724;28;20046;-65
2022/03/05 00:32:31;;;;;;;7.60;4.40;;;1.20;99.90;;;;;;5032964;28;20052;-65
2022/03/05 00:34:57;;;;;;;6.70;4.22;;;1.20;99.90;;;;;;5034241;28;20046;-65
2022/03/05 00:37:23;;;;;;;7.38;4.45;;;1.00;99.90;;;;;;5032992;28;20378;-65
2022/03/05 00:39:48;;;;;;;6.68;4.03;;;1.60;99.90;;;;;;5034187;28;20060;-65
2022/03/05 00:42:14;;;;;;;6.15;4.07;;;1.10;99.90;;;;;;5032112;28;20049;-65
2022/03/05 00:44:40;;;;;;;8.18;5.07;;;0.90;99.90;;;;;;5015824;28;20048;-65
2022/03/05 00:47:06;;;;;;;9.50;4.55;;;1.70;99.90;;;;;;5032614;28;20051;-65
2022/03/05 00:49:32;;;;;;;8.10;4.40;;;1.00;99.90;;;;;;5033520;28;20401;-65
2022/03/05 00:51:58;;;;;;;7.15;4.22;;;0.80;99.90;;;;;;5032471;28;20045;-65
2022/03/05 00:54:23;;;;;;;7.43;4.35;;;1.00;99.90;;;;;;5033633;28;20119;-65
2022/03/05 00:56:49;;;;;;;7.35;4.60;;;1.40;99.90;;;;;;5033401;28;20037;-65
2022/03/05 00:59:15;;;;;;;8.00;4.68;;;1.20;99.90;;;;;;5034243;28;20092;-65
2022/03/05 01:01:41;;;;;;;8.45;5.05;;;1.50;99.90;;;;;;5032597;28;20057;-65
2022/03/05 01:04:07;;;;;;;7.28;4.47;;;2.20;99.90;;;;;;5032174;28;20048;-65
2022/03/05 01:06:33;;;;;;;6.53;4.43;;;0.80;99.90;;;;;;5032188;28;20054;-65
2022/03/05 01:09:04;;;;;;;9.73;4.75;;;1.00;99.90;;;;;;5032197;28;20049;-65
2022/03/05 01:11:31;;;;;;;7.80;4.75;;;0.80;99.90;;;;;;5032381;28;20493;-65
2022/03/05 01:13:57;;;;;;;8.07;4.68;;;2.00;99.90;;;;;;5032157;28;20056;-65
2022/03/05 01:16:22;;;;;;;6.80;4.68;;;2.20;99.90;;;;;;5031815;28;20061;-65
2022/03/05 01:18:48;;;;;;;9.15;5.13;;;0.90;99.90;;;;;;5033208;28;20087;-65
2022/03/05 01:21:14;;;;;;;6.68;4.60;;;1.20;99.90;;;;;;5033942;28;20199;-65
2022/03/05 01:23:40;;;;;;;6.28;4.05;;;0.90;99.90;;;;;;5033513;28;20057;-65
2022/03/05 01:26:06;;;;;;;6.63;4.50;;;1.20;99.90;;;;;;5032177;28;20414;-65
2022/03/05 01:28:32;;;;;;;7.30;4.78;;;0.80;99.90;;;;;;5033140;28;20041;-65
2022/03/05 01:30:58;;;;;;;7.68;4.97;;;1.20;99.90;;;;;;5033116;28;20122;-65
2022/03/05 01:33:24;;;;;;;7.22;4.63;;;1.30;99.90;;;;;;5033242;28;20504;-65
2022/03/05 01:35:50;;;;;;;7.30;5.10;;;1.80;99.90;;;;;;5031900;28;20045;-65
2022/03/05 01:38:16;;;;;;;8.35;4.90;;;1.00;99.90;;;;;;5014772;28;20045;-65
2022/03/05 01:40:43;;;;;;;8.45;5.20;;;1.00;99.90;;;;;;5033264;28;20048;-65
2022/03/05 01:43:09;;;;;;;6.65;4.47;;;1.00;99.90;;;;;;5032761;28;20103;-65
2022/03/05 01:45:35;;;;;;;8.35;4.80;;;2.40;99.90;;;;;;5033058;28;20077;-65
2022/03/05 01:48:02;;;;;;;7.85;4.57;;;0.80;99.90;;;;;;5032098;28;20088;-65
2022/03/05 01:50:28;;;;;;;7.65;4.72;;;0.80;99.90;;;;;;5031387;28;20494;-65
2022/03/05 01:52:55;;;;;;;7.95;5.03;;;1.10;99.90;;;;;;5031767;28;20112;-65
2022/03/05 01:55:20;;;;;;;9.55;5.22;;;1.90;99.90;;;;;;5031736;28;20077;-65
2022/03/05 01:57:46;;;;;;;8.73;5.15;;;1.20;99.90;;;;;;5034963;28;20080;-65
2022/03/05 02:00:14;;;;;;;7.47;5.03;;;0.70;99.90;;;;;;5036461;28;20041;-65
2022/03/05 02:02:41;;;;;;;7.32;4.70;;;0.70;99.90;;;;;;5036431;28;20049;-65
2022/03/05 02:05:09;;;;;;;8.90;5.32;;;1.60;99.90;;;;;;5036081;28;20049;-65
2022/03/05 02:07:35;;;;;;;9.20;4.75;;;0.80;99.90;;;;;;5034725;28;20504;-65
2022/03/05 02:10:02;;;;;;;8.10;4.93;;;0.70;99.90;;;;;;5035102;28;20049;-65
2022/03/05 02:12:29;;;;;;;8.70;5.18;;;0.90;99.90;;;;;;5018977;28;20053;-65
2022/03/05 02:14:55;;;;;;;8.32;5.03;;;0.80;99.90;;;;;;5018279;28;20081;-65
2022/03/05 02:17:21;;;;;;;8.85;5.05;;;0.70;99.90;;;;;;5035138;28;20056;-65
2022/03/05 02:19:47;;;;;;;6.95;4.75;;;2.30;99.90;;;;;;5035192;28;20041;-65
2022/03/05 02:22:13;;;;;;;8.38;4.35;;;0.90;99.90;;;;;;5036070;28;20057;-66
2022/03/05 02:24:39;;;;;;;6.05;4.30;;;0.80;99.90;;;;;;5034864;28;20110;-65
2022/03/05 02:27:06;;;;;;;7.38;4.32;;;0.60;99.90;;;;;;5034909;28;20046;-65
2022/03/05 02:29:34;;;;;;;6.50;4.53;;;0.70;99.90;;;;;;5035921;28;20041;-65
2022/03/05 02:32:00;;;;;;;9.50;4.40;;;1.60;99.90;;;;;;5035906;28;20053;-65
2022/03/05 02:34:26;;;;;;;6.47;4.22;;;0.60;99.90;;;;;;5035858;28;20064;-65
2022/03/05 02:36:51;;;;;;;7.15;4.57;;;1.10;99.90;;;;;;5035166;28;20124;-65
2022/03/05 02:39:17;;;;;;;7.32;4.35;;;1.10;99.90;;;;;;5018328;28;20048;-65
2022/03/05 02:41:43;;;;;;;7.75;4.25;;;0.70;99.90;;;;;;5035652;28;20093;-65
2022/03/05 02:44:10;;;;;;;7.43;4.25;;;1.10;99.90;;;;;;5035752;28;20139;-65
2022/03/05 02:46:36;;;;;;;6.82;4.55;;;0.70;99.90;;;;;;5035293;28;20508;-66
2022/03/05 02:49:06;;;;;;;7.68;4.15;;;1.80;99.90;;;;;;5035512;28;20045;-65
2022/03/05 02:51:31;;;;;;;5.43;3.83;;;0.80;99.90;;;;;;5035286;28;20497;-66
2022/03/05 02:53:57;;;;;;;6.45;4.22;;;1.10;99.90;;;;;;5035704;28;20103;-65
2022/03/05 02:56:23;;;;;;;8.23;4.65;;;1.70;99.90;;;;;;5035374;28;20553;-65
2022/03/05 02:58:49;;;;;;;5.80;4.03;;;0.90;99.90;;;;;;5018688;28;20132;-65
2022/03/05 03:01:14;;;;;;;6.47;3.88;;;0.50;99.90;;;;;;5035352;28;20053;-65
2022/03/05 03:03:41;;;;;;;8.68;4.25;;;1.20;99.90;;;;;;5017789;28;20128;-65
2022/03/05 03:06:07;;;;;;;6.38;3.90;;;0.70;99.90;;;;;;5033712;28;20411;-66
2022/03/05 03:08:32;;;;;;;7.50;4.53;;;0.50;99.90;;;;;;5034077;28;20128;-65
2022/03/05 03:10:59;;;;;;;5.30;3.53;;;0.50;99.90;;;;;;5035363;28;20469;-66
2022/03/05 03:13:24;;;;;;;7.63;3.70;;;0.50;99.90;;;;;;5017459;28;20111;-66
2022/03/05 03:15:50;;;;;;;6.82;3.38;;;0.60;99.90;;;;;;5033705;28;20061;-66
2022/03/05 03:18:17;;;;;;;7.40;4.28;;;0.90;99.90;;;;;;5033759;28;20044;-65
2022/03/05 03:20:43;;;;;;;4.90;3.25;;;0.40;99.90;;;;;;5033859;28;20046;-65
2022/03/05 03:23:09;;;;;;;5.60;3.63;;;0.40;99.90;;;;;;5035337;28;20095;-65
2022/03/05 03:25:35;;;;;;;6.75;3.60;;;0.60;99.90;;;;;;5034857;28;20053;-65
2022/03/05 03:28:01;;;;;;;5.72;3.30;;;1.20;99.90;;;;;;5033635;28;20122;-66
2022/03/05 03:30:27;;;;;;;5.55;3.13;;;0.50;99.90;;;;;;5034780;28;20049;-66
2022/03/05 03:32:52;;;;;;;7.15;3.72;;;0.50;99.90;;;;;;5034748;28;20494;-65
2022/03/05 03:35:18;;;;;;;6.22;3.35;;;1.20;99.90;;;;;;5034977;28;20041;-65
2022/03/05 03:37:45;;;;;;;5.38;3.05;;;0.30;99.90;;;;;;5033997;28;20084;-65
2022/03/05 03:40:13;;;;;;;4.93;2.75;;;1.10;99.90;;;;;;5033586;28;20085;-65
2022/03/05 03:42:39;;;;;;;6.55;3.42;;;0.50;99.90;;;;;;5017101;28;20053;-65
2022/03/05 03:45:05;;;;;;;5.45;3.58;;;0.40;99.90;;;;;;5033359;28;20037;-65
2022/03/05 03:47:31;;;;;;;5.20;3.00;;;0.60;99.90;;;;;;5034427;28;20107;-65
2022/03/05 03:49:57;;;;;;;5.32;3.13;;;1.40;99.90;;;;;;5033397;28;20049;-66
2022/03/05 03:52:23;;;;;;;5.65;3.30;;;1.30;99.90;;;;;;5033494;28;20055;-65
2022/03/05 03:54:49;;;;;;;5.93;3.33;;;0.40;99.90;;;;;;5034402;28;20048;-65
2022/03/05 03:57:15;;;;;;;7.13;3.88;;;1.50;99.90;;;;;;5034311;28;20042;-65
2022/03/05 03:59:41;;;;;;;6.70;3.60;;;0.80;99.90;;;;;;5034977;28;20389;-65
2022/03/05 04:02:07;;;;;;;7.47;3.65;;;0.50;99.90;;;;;;5034257;28;20038;-65
2022/03/05 04:04:32;;;;;;;6.55;3.47;;;0.60;99.90;;;;;;5034215;28;20431;-66
2022/03/05 04:09:42;;;;;;;6.97;3.13;;;0.60;99.90;;;;;;5033327;28;20118;-65
2022/03/05 04:12:08;;;;;;;7.40;3.30;;;0.90;99.90;;;;;;5033734;28;20045;-65
2022/03/05 04:14:35;;;;;;;4.28;3.03;;;0.50;99.90;;;;;;5033856;28;20042;-66
2022/03/05 04:17:01;;;;;;;5.07;3.13;;;1.90;99.90;;;;;;5032788;28;20088;-65
2022/03/05 04:19:27;;;;;;;5.65;3.97;;;0.40;99.90;;;;;;5032500;28;20081;-66
2022/03/05 04:21:52;;;;;;;4.78;3.22;;;0.40;99.90;;;;;;5032969;28;20056;-65
2022/03/05 04:24:18;;;;;;;5.72;3.42;;;0.40;99.90;;;;;;5033831;28;20497;-65
2022/03/05 04:26:44;;;;;;;5.22;3.33;;;0.50;99.90;;;;;;5032832;28;20045;-65
2022/03/05 04:29:10;;;;;;;5.20;3.03;;;0.40;99.90;;;;;;5034241;28;20041;-66
2022/03/05 04:31:36;;;;;;;6.18;3.45;;;0.20;99.90;;;;;;5033765;28;20045;-66
2022/03/05 04:34:01;;;;;;;6.97;3.70;;;1.60;99.90;;;;;;5033735;28;20501;-65
2022/03/05 04:36:27;;;;;;;6.43;3.90;;;0.40;99.90;;;;;;5031835;28;20068;-66
2022/03/05 04:38:53;;;;;;;6.53;3.60;;;1.10;99.90;;;;;;5033712;28;20107;-66
2022/03/05 04:41:19;;;;;;;7.43;3.55;;;0.60;99.90;;;;;;5032520;28;20132;-66
2022/03/05 04:43:44;;;;;;;4.88;3.00;;;0.20;99.90;;;;;;5033664;28;20053;-66
2022/03/05 04:46:12;;;;;;;6.13;3.53;;;0.30;99.90;;;;;;5033902;28;20045;-66
2022/03/05 04:48:38;;;;;;;5.38;3.35;;;0.60;99.90;;;;;;5033546;28;20099;-66
2022/03/05 04:51:03;;;;;;;7.82;3.78;;;0.50;99.90;;;;;;5033569;28;20049;-65
2022/03/05 04:53:29;;;;;;;6.30;3.33;;;0.70;99.90;;;;;;5033533;28;20053;-66
2022/03/05 04:55:55;;;;;;;5.82;3.58;;;0.20;99.90;;;;;;5033659;28;20556;-65
2022/03/05 04:58:21;;;;;;;4.20;2.95;;;0.40;99.90;;;;;;5033424;28;20389;-65
2022/03/05 05:00:47;;;;;;;6.57;3.08;;;1.50;99.90;;;;;;5033111;28;20048;-66
2022/03/05 05:03:13;;;;;;;6.72;3.17;;;0.40;99.90;;;;;;5033381;28;20054;-66
2022/03/05 05:05:38;;;;;;;6.93;3.92;;;0.40;99.90;;;;;;5033396;28;20045;-66
2022/03/05 05:08:04;;;;;;;6.72;3.30;;;0.20;99.90;;;;;;5031536;28;20401;-66
2022/03/05 05:10:30;;;;;;;5.22;3.00;;;0.40;99.90;;;;;;5032495;28;20050;-66
2022/03/05 05:12:56;;;;;;;3.92;2.85;;;0.30;99.90;;;;;;5033331;28;20046;-66
2022/03/05 05:15:22;;;;;;;5.95;2.95;;;1.40;99.90;;;;;;5033106;28;20482;-66
2022/03/05 05:17:48;;;;;;;6.88;3.20;;;0.40;99.90;;;;;;5031778;28;20131;-66
2022/03/05 05:20:14;;;;;;;6.20;3.25;;;0.40;99.90;;;;;;5032674;28;20162;-65
2022/03/05 05:22:40;;;;;;;5.63;3.92;;;0.80;99.90;;;;;;5032063;28;20081;-66
2022/03/05 05:25:06;;;;;;;5.03;3.58;;;0.40;99.90;;;;;;5032920;28;20421;-66
2022/03/05 05:27:37;;;;;;;6.85;3.70;;;0.40;99.90;;;;;;5032031;28;20129;-67
2022/03/05 05:30:04;;;;;;;6.05;3.90;;;0.80;99.90;;;;;;5032118;28;20061;-66
2022/03/05 05:32:30;;;;;;;6.53;3.70;;;0.30;99.90;;;;;;5035041;28;20056;-66
2022/03/05 05:34:55;;;;;;;6.50;4.30;;;0.10;99.90;;;;;;5037034;28;20049;-66
2022/03/05 05:37:21;;;;;;;7.88;4.20;;;0.30;99.90;;;;;;5036247;28;20049;-66
2022/03/05 05:39:47;;;;;;;7.10;3.85;;;0.30;99.90;;;;;;5036543;28;20041;-66
2022/03/05 05:42:13;;;;;;;7.18;4.20;;;0.20;99.90;;;;;;5036814;28;20132;-66
2022/03/05 05:44:39;;;;;;;6.90;4.10;;;0.40;99.90;;;;;;5036853;28;20470;-66
2022/03/05 05:47:05;;;;;;;8.23;4.35;;;0.60;99.90;;;;;;5037444;28;20512;-66
2022/03/05 05:49:31;;;;;;;5.88;3.95;;;0.30;99.90;;;;;;5036443;28;20049;-66
2022/03/05 05:51:56;;;;;;;8.38;4.30;;;0.60;99.90;;;;;;5036724;28;20050;-66
2022/03/05 05:54:23;;;;;;;8.32;4.05;;;0.00;99.90;;;;;;5035380;28;20084;-66
2022/03/05 05:56:49;;;;;;;8.65;4.72;;;0.20;99.90;;;;;;5035254;28;20129;-66
2022/03/05 05:59:16;;;;;;;7.22;4.90;;;0.00;99.90;;;;;;5036506;28;20045;-66
2022/03/05 06:01:42;;;;;;;7.22;4.68;;;1.00;99.90;;;;;;5035020;28;20511;-66
2022/03/05 06:04:07;;;;;;;7.82;4.40;;;0.20;99.90;;;;;;5036458;28;20041;-66
2022/03/05 06:06:33;;;;;;;8.23;4.47;;;0.10;99.90;;;;;;5034565;28;20046;-66
2022/03/05 06:08:59;;;;;;;6.65;4.70;;;0.30;99.90;;;;;;5019106;28;20049;-66
2022/03/05 06:11:25;;;;;;;8.35;4.57;;;0.30;99.90;;;;;;5018607;28;20053;-66
2022/03/05 06:13:51;;;;;;;5.68;3.92;;;0.20;99.90;;;;;;5036249;28;20091;-66
2022/03/05 06:16:16;;;;;;;6.50;4.80;;;0.30;99.90;;;;;;5036226;28;20180;-66
2022/03/05 06:18:42;;;;;;;7.65;4.47;;;1.40;99.90;;;;;;5036224;28;20045;-66
2022/03/05 06:21:08;;;;;;;7.05;4.88;;;0.10;99.90;;;;;;5035200;28;20486;-66
2022/03/05 06:23:37;;;;;;;7.68;4.63;;;1.40;99.90;;;;;;5036100;28;20045;-66
2022/03/05 06:26:04;;;;;;;8.75;5.07;;;0.20;99.90;;;;;;5034579;28;20531;-66
2022/03/05 06:28:30;;;;;;;7.18;4.68;;;1.40;99.90;;;;;;5036040;28;20042;-66
2022/03/05 06:30:55;;;;;;;7.60;4.57;;;0.60;99.90;;;;;;5034644;28;20073;-66
2022/03/05 06:33:21;;;;;;;8.38;4.93;;;0.20;99.90;;;;;;5018622;28;20091;-66
2022/03/05 06:35:47;;;;;;;8.63;5.03;;;1.60;99.90;;;;;;5035864;28;20118;-66
2022/03/05 06:38:13;;;;;;;7.15;4.78;;;0.30;99.90;;;;;;5017554;28;20116;-67
2022/03/05 06:40:39;;;;;;;8.48;5.03;;;0.20;99.90;;;;;;5035801;28;20061;-66
2022/03/05 06:43:05;;;;;;;7.43;4.97;;;0.20;99.90;;;;;;5035308;28;20508;-66
2022/03/05 06:45:31;;;;;;;8.88;4.82;;;0.50;99.90;;;;;;5035649;28;20072;-66
2022/03/05 06:47:57;;;;;;;9.05;5.35;;;1.20;99.90;;;;;;5035660;28;20064;-66
2022/03/05 06:50:23;;;;;;;6.88;4.47;;;0.80;99.90;;;;;;5034564;28;20049;-66
2022/03/05 06:52:52;;;;;;;7.47;4.93;;;0.40;99.90;;;;;;5035913;28;20041;-67
2022/03/05 06:55:17;;;;;;;9.27;5.00;;;1.10;99.90;;;;;;5035514;28;20049;-67
2022/03/05 06:57:45;;;;;;;9.02;4.93;;;2.10;99.90;;;;;;5035339;28;20046;-66
2022/03/05 07:00:12;;;;;;;7.78;4.47;;;0.50;99.90;;;;;;5035384;28;20057;-66
2022/03/05 07:02:38;;;;;;;9.13;5.10;;;0.20;99.90;;;;;;5035314;28;20038;-65
2022/03/05 07:05:04;;;;;;;10.30;5.40;;;1.90;99.90;;;;;;5034676;28;20046;-65
2022/03/05 07:07:30;;;;;;;6.10;4.45;;;0.40;99.90;;;;;;5034617;28;20047;-65
2022/03/05 07:09:56;;;;;;;8.10;4.40;;;2.10;99.90;;;;;;5035178;28;20041;-66
2022/03/05 07:12:25;;;;;;;8.60;4.68;;;0.70;99.90;;;;;;5033891;28;20144;-66
2022/03/05 07:14:51;;;;;;;6.93;4.20;;;0.80;99.90;;;;;;5034914;28;20128;-66
2022/03/05 07:17:18;;;;;;;5.30;4.07;;;0.60;99.90;;;;;;5035032;28;20095;-65
2022/03/05 07:19:43;;;;;;;8.60;4.25;;;0.70;99.90;;;;;;5034933;28;20041;-65
2022/03/05 07:22:09;;;;;;;7.65;4.32;;;0.80;99.90;;;;;;5034959;28;20112;-65
2022/03/05 07:24:35;;;;;;;7.93;4.80;;;1.20;99.90;;;;;;5035505;28;20076;-65
2022/03/05 07:27:01;;;;;;;8.10;4.68;;;1.70;99.90;;;;;;5033882;28;20120;-65
2022/03/05 07:29:27;;;;;;;6.97;3.97;;;0.80;99.90;;;;;;5034723;28;20053;-65
2022/03/05 07:31:53;;;;;;;6.28;3.90;;;0.90;99.90;;;;;;5034913;28;20049;-65
2022/03/05 07:34:18;;;;;;;9.68;4.53;;;1.60;99.90;;;;;;5033708;28;20046;-66
2022/03/05 07:36:44;;;;;;;7.53;4.43;;;0.80;99.90;;;;;;5034220;28;20101;-66
2022/03/05 07:39:10;;;;;;;6.47;4.20;;;0.90;99.90;;;;;;5034812;28;20448;-65
2022/03/05 07:41:39;;;;;;;7.10;3.45;;;0.80;99.90;;;;;;5034718;28;20045;-65
2022/03/05 07:44:05;;;;;;;8.63;4.28;;;0.90;99.90;;;;;;5033733;28;20089;-65
2022/03/05 07:46:32;;;;;;;7.82;4.10;;;1.00;99.90;;;;;;5034676;28;20049;-65
2022/03/05 07:48:58;;;;;;;6.30;3.28;;;1.70;99.90;;;;;;5033472;28;20041;-66
2022/03/05 07:51:24;;;;;;;6.65;4.28;;;1.80;99.90;;;;;;5034993;28;20041;-65
2022/03/05 07:53:50;;;;;;;7.57;3.80;;;1.70;99.90;;;;;;5034251;28;20052;-65
2022/03/05 07:56:16;;;;;;;7.47;3.92;;;1.10;99.90;;;;;;5033049;28;20053;-65
2022/03/05 07:58:42;;;;;;;6.53;3.88;;;1.60;99.90;;;;;;5034806;28;20489;-65
2022/03/05 08:01:08;;;;;;;6.28;3.63;;;2.80;99.90;;;;;;5035090;28;20045;-65
2022/03/05 08:03:33;;;;;;;7.45;4.20;;;2.10;99.90;;;;;;5033376;28;20042;-65
2022/03/05 08:06:00;;;;;;;6.38;3.67;;;1.60;99.90;;;;;;5032721;28;20389;-65
2022/03/05 08:08:26;;;;;;;7.15;4.07;;;1.50;99.90;;;;;;5032143;28;20080;-65
2022/03/05 08:10:51;;;;;;;7.55;3.95;;;1.50;99.90;;;;;;5015574;28;20108;-65
2022/03/05 08:13:17;;;;;;;7.40;4.70;;;1.40;99.90;;;;;;5033993;28;20038;-66
2022/03/05 08:15:43;;;;;;;8.50;4.30;;;1.50;99.90;;;;;;5016401;28;20501;-65
2022/03/05 08:18:09;;;;;;;7.90;4.05;;;2.30;99.90;;;;;;5033895;28;20051;-66
2022/03/05 08:20:35;;;;;;;8.60;5.25;;;1.70;99.90;;;;;;5032750;28;20188;-65
2022/03/05 08:23:01;;;;;;;8.40;4.43;;;2.40;99.90;;;;;;5016533;28;20045;-65
2022/03/05 08:25:27;;;;;;;9.40;3.85;;;1.70;99.90;;;;;;5034210;28;20051;-65
2022/03/05 08:27:54;;;;;;;11.40;4.65;;;1.80;99.90;;;;;;5033826;28;20042;-65
2022/03/05 08:30:20;;;;;;;8.57;4.28;;;1.70;99.90;;;;;;5034123;28;20366;-67
2022/03/05 08:32:46;;;;;;;7.20;4.38;;;1.70;99.90;;;;;;5033969;28;20041;-67
2022/03/05 08:35:13;;;;;;;8.82;4.68;;;1.90;99.90;;;;;;5032270;28;20075;-67
2022/03/05 08:37:40;;;;;;;10.00;4.50;;;1.80;99.90;;;;;;5033266;28;20124;-66
2022/03/05 08:40:08;;;;;;;9.98;5.57;;;1.80;99.90;;;;;;5032309;28;20496;-66
2022/03/05 08:42:34;;;;;;;7.63;4.25;;;2.00;99.90;;;;;;5032619;28;20404;-67
2022/03/05 08:45:00;;;;;;;7.13;4.15;;;2.00;99.90;;;;;;5033831;28;20041;-66
2022/03/05 08:47:25;;;;;;;6.72;3.78;;;2.20;99.90;;;;;;5034047;28;20346;-67
2022/03/05 08:49:51;;;;;;;7.88;4.40;;;2.10;99.90;;;;;;5033750;28;20045;-67
2022/03/05 08:52:17;;;;;;;9.20;4.22;;;2.50;99.90;;;;;;5032729;28;20037;-67
2022/03/05 08:54:43;;;;;;;7.55;4.38;;;3.00;99.90;;;;;;5033621;28;20095;-67
2022/03/05 08:57:11;;;;;;;8.85;4.47;;;2.60;99.90;;;;;;5033659;28;20037;-67
2022/03/05 08:59:38;;;;;;;6.78;3.92;;;2.10;99.90;;;;;;5032527;28;20038;-66
2022/03/05 09:02:05;;;;;;;6.95;3.60;;;3.30;99.90;;;;;;5016439;28;20134;-66
2022/03/05 09:04:31;;;;;;;7.15;4.53;;;2.90;99.90;;;;;;5033869;28;20045;-65
2022/03/05 09:06:57;;;;;;;8.35;4.22;;;3.10;99.90;;;;;;5034982;28;20110;-66
2022/03/05 09:09:23;;;;;;;9.13;4.25;;;2.40;99.90;;;;;;5037594;28;20561;-66
2022/03/05 09:11:49;;;;;;;5.97;4.03;;;2.40;99.90;;;;;;5037767;28;20050;-66
2022/03/05 09:14:15;;;;;;;8.13;3.80;;;2.60;99.90;;;;;;5036097;28;20072;-66
2022/03/05 09:16:41;;;;;;;8.65;4.15;;;2.60;99.90;;;;;;5035871;28;20053;-66
2022/03/05 09:19:08;;;;;;;8.45;3.63;;;3.60;99.90;;;;;;5037608;28;20056;-66
2022/03/05 09:21:34;;;;;;;7.90;4.30;;;2.70;99.90;;;;;;5037563;28;20394;-66
2022/03/05 09:24:01;;;;;;;7.93;4.93;;;2.80;99.90;;;;;;5037308;28;20059;-65
2022/03/05 09:26:27;;;;;;;6.13;3.53;;;3.30;99.90;;;;;;5037086;28;20052;-66
2022/03/05 09:28:53;;;;;;;8.23;4.35;;;2.90;99.90;;;;;;5019819;28;20489;-66
2022/03/05 09:31:19;;;;;;;7.70;3.92;;;2.90;99.90;;;;;;5037173;28;20133;-66
2022/03/05 09:33:45;;;;;;;7.20;3.67;;;2.90;99.90;;;;;;5036015;28;20089;-66
2022/03/05 09:36:11;;;;;;;8.50;3.90;;;2.90;99.90;;;;;;5037402;28;20088;-66
2022/03/05 09:38:37;;;;;;;8.30;4.18;;;3.50;99.90;;;;;;5036515;28;20037;-66
2022/03/05 09:41:04;;;;;;;8.77;3.83;;;3.10;99.90;;;;;;5037708;28;20049;-66
2022/03/05 09:43:30;;;;;;;8.90;4.25;;;3.50;99.90;;;;;;5036919;28;20052;-71
2022/03/05 09:45:57;;;;;;;7.13;3.70;;;3.40;99.90;;;;;;5036499;28;20041;-66
2022/03/05 09:48:25;;;;;;;7.55;4.40;;;3.50;99.90;;;;;;5032824;28;20057;-66
2022/03/05 09:50:51;;;;;;;9.32;4.53;;;3.10;99.90;;;;;;5036529;28;20392;-66
2022/03/05 09:53:18;;;;;;;9.13;4.10;;;3.20;99.90;;;;;;5035768;28;20041;-66
2022/03/05 09:55:45;;;;;;;8.00;3.90;;;4.00;99.90;;;;;;5018858;28;20088;-65
2022/03/05 09:58:10;;;;;;;8.18;4.20;;;4.00;99.90;;;;;;5035085;28;20037;-66
2022/03/05 10:00:39;;;;;;;9.25;4.45;;;3.40;99.90;;;;;;5036149;28;20037;-66
2022/03/05 10:03:11;;;;;;;7.88;4.22;;;3.80;99.90;;;;;;5034981;28;20051;-65
2022/03/05 10:05:37;;;;;;;8.68;4.40;;;4.10;99.90;;;;;;5035131;28;20037;-66
2022/03/05 10:08:26;;;;;;;8.25;4.10;;;3.70;99.90;;;;;;5035605;28;20129;-66
2022/03/05 10:11:01;;;;;;;8.85;4.20;;;3.80;99.90;;;;;;5035170;28;20053;-65
2022/03/05 10:13:28;;;;;;;6.97;3.78;;;3.90;99.90;;;;;;5034363;28;20107;-65
2022/03/05 10:16:00;;;;;;;10.23;4.85;;;4.00;99.90;;;;;;5035664;28;20494;-66
2022/03/05 10:18:26;;;;;;;9.70;5.05;;;3.90;99.90;;;;;;5035088;28;20079;-65
2022/03/05 10:20:52;;;;;;;9.45;4.22;;;4.10;99.90;;;;;;5035860;28;20045;-66
2022/03/05 10:23:20;;;;;;;6.35;3.55;;;4.00;99.90;;;;;;5035803;28;20045;-66
2022/03/05 10:25:53;;;;;;;10.48;4.55;;;4.20;99.90;;;;;;5035744;28;20049;-66
2022/03/05 10:28:29;;;;;;;8.00;4.15;;;4.10;99.90;;;;;;5033123;28;20059;-66
2022/03/05 10:31:03;;;;;;;9.75;4.32;;;4.20;99.90;;;;;;5035620;28;20119;-66
2022/03/05 10:33:49;;;;;;;9.38;4.25;;;4.40;99.90;;;;;;5035670;28;20045;-66
2022/03/05 10:36:25;;;;;;;8.82;4.50;;;4.30;99.90;;;;;;5034554;28;20107;-66
2022/03/05 10:38:51;;;;;;;8.07;4.75;;;4.40;99.90;;;;;;5034994;28;20100;-66
2022/03/05 10:41:21;;;;;;;8.50;4.40;;;4.80;99.90;;;;;;5035405;28;20049;-66
2022/03/05 10:44:04;;;;;;;10.60;4.68;;;4.70;99.90;;;;;;5035452;28;20043;-66
2022/03/05 10:46:44;;;;;;;8.15;4.32;;;4.60;99.90;;;;;;5034290;28;20088;-66
2022/03/05 10:49:18;;;;;;;10.38;4.88;;;4.40;99.90;;;;;;5034286;28;20094;-66
2022/03/05 10:51:49;;;;;;;8.90;3.88;;;4.80;99.90;;;;;;5015824;28;20053;-67
2022/03/05 10:54:42;;;;;;;9.45;5.10;;;4.50;99.90;;;;;;5033946;28;20058;-66
2022/03/05 10:57:22;;;;;;;9.38;4.40;;;4.60;99.90;;;;;;5033622;28;20050;-67
2022/03/05 10:59:53;;;;;;;10.70;4.97;;;4.70;99.90;;;;;;5033553;28;20079;-66
2022/03/05 11:02:20;;;;;;;8.85;5.20;;;4.80;99.90;;;;;;5031121;28;20107;-66
2022/03/05 11:04:47;;;;;;;10.60;4.63;;;4.80;99.90;;;;;;5027809;28;20049;-67
2022/03/05 11:07:16;;;;;;;8.32;4.65;;;4.60;99.90;;;;;;5027054;28;20473;-66
2022/03/05 11:09:42;;;;;;;10.02;4.93;;;5.20;99.90;;;;;;5026224;28;20057;-66
2022/03/05 11:12:14;;;;;;;8.18;4.85;;;4.90;99.90;;;;;;5026240;28;20050;-67
2022/03/05 11:14:43;;;;;;;7.32;4.25;;;4.90;99.90;;;;;;5027173;28;20057;-66
2022/03/05 11:17:10;;;;;;;10.80;4.93;;;4.90;99.90;;;;;;5029128;28;20409;-66
2022/03/05 11:19:37;;;;;;;11.50;5.18;;;5.00;99.90;;;;;;5027199;28;20055;-66
2022/03/05 11:22:03;;;;;;;6.95;4.20;;;5.10;99.90;;;;;;5024989;28;20048;-67
2022/03/05 11:24:30;;;;;;;8.32;4.78;;;5.00;99.90;;;;;;5023861;28;20088;-66
2022/03/05 11:26:56;;;;;;;9.88;4.85;;;5.00;99.90;;;;;;5028970;28;20120;-66
2022/03/05 11:29:27;;;;;;;7.53;4.32;;;4.90;99.90;;;;;;5026526;28;20366;-66
2022/03/05 11:32:08;;;;;;;9.68;4.68;;;5.20;99.90;;;;;;5030328;28;20041;-66
2022/03/05 11:34:46;;;;;;;8.65;4.88;;;5.30;99.60;;;;;;5027167;28;21195;-67
2022/03/05 11:37:17;;;;;;;9.13;5.47;;;5.10;99.20;;;;;;5023489;28;20038;-66
2022/03/05 11:39:43;;;;;;;7.80;4.80;;;5.20;99.40;;;;;;5026208;28;20080;-66
2022/03/05 11:42:09;;;;;;;8.02;4.38;;;5.20;99.70;;;;;;5029073;28;20093;-66
2022/03/05 11:44:40;;;;;;;9.23;4.68;;;5.30;99.40;;;;;;5029804;28;20056;-67
2022/03/05 11:47:18;;;;;;;8.80;4.60;;;5.50;99.10;;;;;;5029043;28;20042;-67
2022/03/05 11:49:59;;;;;;;11.90;4.63;;;5.50;98.90;;;;;;5029320;28;20072;-66
2022/03/05 11:52:40;;;;;;;11.35;5.25;;;5.90;98.70;;;;;;5023786;28;20512;-67
2022/03/05 11:55:15;;;;;;;9.70;5.32;;;5.50;98.80;;;;;;5025162;28;20046;-67
2022/03/05 11:57:43;;;;;;;8.50;4.70;;;5.50;97.60;;;;;;5027745;28;20090;-67
2022/03/05 12:00:10;;;;;;;10.07;5.97;;;5.80;97.90;;;;;;5011895;28;20041;-66
2022/03/05 12:02:38;;;;;;;8.18;4.85;;;5.60;97.40;;;;;;5022402;28;20077;-67
2022/03/05 12:05:04;;;;;;;9.27;4.63;;;5.80;97.50;;;;;;5027320;28;20049;-67
2022/03/05 12:07:56;;;;;;;9.20;4.88;;;5.70;97.10;;;;;;5009631;28;20056;-67
2022/03/05 12:10:21;;;;;;;11.57;5.50;;;5.70;97.50;;;;;;5019616;28;20049;-67
2022/03/05 12:12:57;;;;;;;10.85;5.20;;;5.60;97.00;;;;;;5025640;28;20051;-67
2022/03/05 12:15:26;;;;;;;11.93;5.80;;;5.90;97.00;;;;;;5031078;28;20529;-68
2022/03/05 12:17:53;;;;;;;10.45;5.38;;;5.90;96.80;;;;;;5033301;28;20413;-67
2022/03/05 12:20:24;;;;;;;12.00;5.95;;;6.00;96.90;;;;;;5033585;28;20124;-67
2022/03/05 12:23:01;;;;;;;10.98;6.43;;;6.00;96.50;;;;;;5033437;28;20052;-67
2022/03/05 12:25:29;;;;;;;10.50;5.80;;;6.20;96.50;;;;;;5033577;28;20049;-67
2022/03/05 12:27:56;;;;;;;11.43;6.03;;;6.00;96.10;;;;;;5033551;28;20033;-67
2022/03/05 12:30:24;;;;;;;10.70;5.38;;;6.20;96.00;;;;;;5033584;28;20052;-67
2022/03/05 12:32:52;;;;;;;11.93;5.43;;;6.10;96.10;;;;;;5030323;28;20037;-67
2022/03/05 12:35:21;;;;;;;10.35;5.82;;;6.20;95.70;;;;;;5033528;28;20115;-67
2022/03/05 12:37:47;;;;;;;11.57;6.07;;;6.20;95.60;;;;;;5031644;28;20033;-68
2022/03/05 12:40:13;;;;;;;11.93;6.60;;;6.40;95.60;;;;;;5032283;28;20049;-67
2022/03/05 12:42:50;;;;;;;12.60;6.25;;;6.30;95.60;;;;;;5031962;28;20061;-67
2022/03/05 12:45:27;;;;;;;10.52;6.28;;;6.30;95.80;;;;;;5030653;28;20045;-67
2022/03/05 12:47:58;;;;;;;10.57;5.93;;;6.40;96.10;;;;;;5031415;28;20421;-67
2022/03/05 12:50:36;;;;;;;12.18;6.65;;;6.30;95.70;;;;;;5032100;28;20107;-67
2022/03/05 12:53:16;;;;;;;12.32;6.32;;;6.40;95.60;;;;;;5032322;28;20045;-67
2022/03/05 12:55:45;;;;;;;14.13;7.75;;;6.50;95.50;;;;;;5032568;28;20049;-67
2022/03/05 12:58:12;;;;;;;11.80;7.38;;;6.60;95.70;;;;;;5029651;28;20036;-67